createdAt,value
2022-09-11T00:00:03.629Z,20.00
2022-09-11T00:00:47.078Z,20.08
2022-09-11T00:01:20.771Z,19.70
2022-09-11T00:01:56.293Z,20.30
2022-09-11T00:02:30.512Z,19.10
2022-09-11T00:03:04.634Z,19.73
2022-09-11T00:03:40.578Z,19.08
2022-09-11T00:04:14.732Z,19.55
2022-09-11T00:04:50.720Z,20.17
2022-09-11T00:05:24.046Z,20.30
2022-09-11T00:05:58.025Z,19.30
2022-09-11T00:06:33.302Z,19.80
2022-09-11T00:07:08.243Z,21.15
2022-09-11T00:07:41.893Z,19.30
2022-09-11T00:08:19.052Z,20.55
2022-09-11T00:08:54.161Z,19.67
2022-09-11T00:09:27.545Z,20.17
2022-09-11T00:10:03.131Z,19.67
2022-09-11T00:10:38.156Z,20.42
2022-09-11T00:11:13.516Z,20.27
2022-09-11T00:11:48.780Z,19.42
2022-09-11T00:12:22.861Z,18.92
2022-09-11T00:12:57.076Z,18.83
2022-09-11T00:13:32.231Z,19.52
2022-09-11T00:14:07.031Z,20.13
2022-09-11T00:14:42.870Z,18.83
2022-09-11T00:15:18.366Z,21.60
2022-09-11T00:15:53.180Z,20.23
2022-09-11T00:16:31.221Z,19.40
2022-09-11T00:17:05.927Z,19.92
2022-09-11T00:17:40.108Z,20.40
2022-09-11T00:18:15.312Z,20.10
2022-09-11T00:18:50.275Z,19.30
2022-09-11T00:19:25.191Z,19.55
2022-09-11T00:20:00.808Z,20.73
2022-09-11T00:20:36.485Z,20.00
2022-09-11T00:21:10.716Z,21.63
2022-09-11T00:21:47.346Z,20.25
2022-09-11T00:22:22.702Z,20.08
2022-09-11T00:22:57.779Z,19.88
2022-09-11T00:23:32.031Z,19.45
2022-09-11T00:24:09.538Z,19.67
2022-09-11T00:24:43.182Z,19.67
2022-09-11T00:25:18.935Z,20.20
2022-09-11T00:25:52.091Z,20.77
2022-09-11T00:26:26.527Z,20.40
2022-09-11T00:27:01.912Z,21.23
2022-09-11T00:27:36.150Z,19.50
2022-09-11T00:28:12.830Z,20.02
2022-09-11T00:28:49.597Z,20.63
2022-09-11T00:29:24.099Z,20.08
2022-09-11T00:29:59.450Z,20.98
2022-09-11T00:30:34.558Z,20.42
2022-09-11T00:31:09.694Z,20.27
2022-09-11T00:31:45.075Z,20.48
2022-09-11T00:32:20.803Z,20.13
2022-09-11T00:32:54.554Z,20.50
2022-09-11T00:33:30.307Z,19.92
2022-09-11T00:34:04.335Z,20.00
2022-09-11T00:34:39.881Z,19.92
2022-09-11T00:35:13.771Z,20.60
2022-09-11T00:35:57.595Z,20.35
2022-09-11T00:36:33.207Z,20.08
2022-09-11T00:37:07.250Z,20.27
2022-09-11T00:37:41.255Z,19.70
2022-09-11T00:38:17.367Z,20.65
2022-09-11T00:38:52.044Z,19.73
2022-09-11T00:39:27.081Z,20.50
2022-09-11T00:40:01.362Z,19.58
2022-09-11T00:40:36.084Z,20.08
2022-09-11T00:41:13.959Z,20.98
2022-09-11T00:41:48.171Z,20.17
2022-09-11T00:42:22.611Z,20.65
2022-09-11T00:42:58.939Z,21.00
2022-09-11T00:43:52.618Z,19.95
2022-09-11T00:44:46.685Z,20.85
2022-09-11T00:45:22.596Z,19.50
2022-09-11T00:45:59.440Z,20.35
2022-09-11T00:46:38.386Z,20.90
2022-09-11T00:47:15.952Z,19.98
2022-09-11T00:47:53.527Z,20.50
2022-09-11T00:48:30.513Z,20.13
2022-09-11T00:49:06.558Z,20.67
2022-09-11T00:49:44.569Z,19.48
2022-09-11T00:50:20.081Z,20.95
2022-09-11T00:50:55.089Z,19.88
2022-09-11T00:51:35.782Z,20.75
2022-09-11T00:52:11.338Z,19.90
2022-09-11T00:52:53.243Z,20.90
2022-09-11T00:53:32.246Z,20.13
2022-09-11T00:54:06.841Z,21.17
2022-09-11T00:54:44.025Z,20.55
2022-09-11T00:55:21.063Z,19.92
2022-09-11T00:55:59.239Z,19.30
2022-09-11T00:56:38.749Z,20.25
2022-09-11T00:57:12.491Z,21.52
2022-09-11T00:57:49.193Z,20.17
2022-09-11T00:58:25.667Z,20.27
2022-09-11T00:59:01.763Z,21.05
2022-09-11T00:59:36.135Z,19.77
2022-09-11T01:00:13.546Z,20.23
2022-09-11T01:00:47.687Z,19.73
2022-09-11T01:01:23.207Z,19.73
2022-09-11T01:01:58.334Z,19.40
2022-09-11T01:02:33.143Z,19.88
2022-09-11T01:03:07.178Z,20.02
2022-09-11T01:03:42.913Z,20.42
2022-09-11T01:04:17.300Z,20.35
2022-09-11T01:04:51.635Z,21.38
2022-09-11T01:05:27.563Z,20.77
2022-09-11T01:06:01.271Z,20.13
2022-09-11T01:06:36.055Z,18.80
2022-09-11T01:07:13.485Z,19.83
2022-09-11T01:07:48.657Z,20.50
2022-09-11T01:08:22.824Z,20.65
2022-09-11T01:08:57.588Z,19.88
2022-09-11T01:09:32.596Z,19.90
2022-09-11T01:10:09.307Z,20.52
2022-09-11T01:10:50.962Z,19.75
2022-09-11T01:11:35.163Z,20.73
2022-09-11T01:12:11.950Z,20.10
2022-09-11T01:12:51.514Z,21.00
2022-09-11T01:13:29.928Z,20.85
2022-09-11T01:14:09.198Z,19.50
2022-09-11T01:14:47.802Z,20.20
2022-09-11T01:15:23.225Z,20.70
2022-09-11T01:16:04.870Z,20.52
2022-09-11T01:16:44.227Z,20.60
2022-09-11T01:17:23.860Z,19.95
2022-09-11T01:18:03.136Z,21.08
2022-09-11T01:18:41.934Z,19.13
2022-09-11T01:19:26.627Z,20.33
2022-09-11T01:20:16.639Z,20.70
2022-09-11T01:21:00.478Z,20.30
2022-09-11T01:21:52.985Z,20.70
2022-09-11T01:22:52.384Z,19.60
2022-09-11T01:23:35.637Z,19.52
2022-09-11T01:24:18.266Z,21.00
2022-09-11T01:25:02.250Z,21.70
2022-09-11T01:25:44.953Z,21.65
2022-09-11T01:26:32.677Z,21.35
2022-09-11T01:27:29.043Z,21.13
2022-09-11T01:28:06.971Z,21.80
2022-09-11T01:28:47.373Z,20.83
2022-09-11T01:29:24.659Z,20.77
2022-09-11T01:30:03.035Z,21.15
2022-09-11T01:30:41.118Z,21.55
2022-09-11T01:31:18.664Z,20.88
2022-09-11T01:31:56.346Z,22.35
2022-09-11T01:32:35.192Z,21.20
2022-09-11T01:33:17.344Z,20.75
2022-09-11T01:33:55.038Z,20.33
2022-09-11T01:34:33.128Z,20.40
2022-09-11T01:35:13.479Z,21.38
2022-09-11T01:35:55.063Z,20.90
2022-09-11T01:36:31.780Z,26.13
2022-09-11T01:37:07.712Z,24.83
2022-09-11T01:37:43.578Z,22.85
2022-09-11T01:38:19.021Z,24.63
2022-09-11T01:38:55.502Z,23.92
2022-09-11T01:39:32.217Z,22.30
2022-09-11T01:40:11.405Z,20.88
2022-09-11T01:40:49.941Z,21.35
2022-09-11T01:41:28.482Z,21.48
2022-09-11T01:42:07.853Z,21.45
2022-09-11T01:42:44.980Z,21.33
2022-09-11T01:43:22.866Z,21.80
2022-09-11T01:44:00.186Z,21.48
2022-09-11T01:44:37.545Z,22.30
2022-09-11T01:45:17.880Z,22.02
2022-09-11T01:45:55.397Z,22.17
2022-09-11T01:46:30.399Z,22.67
2022-09-11T01:47:05.710Z,21.67
2022-09-11T01:47:39.769Z,21.45
2022-09-11T01:48:15.174Z,21.52
2022-09-11T01:48:50.823Z,22.10
2022-09-11T01:49:29.558Z,22.42
2022-09-11T01:50:05.453Z,21.25
2022-09-11T01:50:41.423Z,21.33
2022-09-11T01:51:18.227Z,21.02
2022-09-11T01:51:55.750Z,21.80
2022-09-11T01:52:32.189Z,22.20
2022-09-11T01:53:10.468Z,21.45
2022-09-11T01:53:50.151Z,21.77
2022-09-11T01:55:01.968Z,20.52
2022-09-11T01:55:39.481Z,21.17
2022-09-11T01:56:20.202Z,21.92
2022-09-11T01:56:56.587Z,21.52
2022-09-11T01:57:32.902Z,22.48
2022-09-11T01:58:11.538Z,22.77
2022-09-11T01:58:49.501Z,21.23
2022-09-11T01:59:28.655Z,22.08
2022-09-11T02:00:05.274Z,21.80
2022-09-11T02:00:50.851Z,21.33
2022-09-11T02:01:26.473Z,21.73
2022-09-11T02:02:03.020Z,21.42
2022-09-11T02:02:39.501Z,21.17
2022-09-11T02:03:16.967Z,21.63
2022-09-11T02:03:54.341Z,22.25
2022-09-11T02:04:31.269Z,20.92
2022-09-11T02:05:10.895Z,21.83
2022-09-11T02:05:50.622Z,22.40
2022-09-11T02:06:32.805Z,22.00
2022-09-11T02:07:10.248Z,21.35
2022-09-11T02:07:47.866Z,22.58
2022-09-11T02:08:23.520Z,22.02
2022-09-11T02:09:01.340Z,20.80
2022-09-11T02:09:39.933Z,20.98
2022-09-11T02:10:15.166Z,22.00
2022-09-11T02:10:52.572Z,21.45
2022-09-11T02:11:30.101Z,21.83
2022-09-11T02:12:05.395Z,22.08
2022-09-11T02:12:43.596Z,21.13
2022-09-11T02:13:25.004Z,20.63
2022-09-11T02:14:06.404Z,21.60
2022-09-11T02:14:44.062Z,21.20
2022-09-11T02:15:17.813Z,20.95
2022-09-11T02:15:54.882Z,21.83
2022-09-11T02:16:38.654Z,21.60
2022-09-11T02:17:18.088Z,20.00
2022-09-11T02:17:55.914Z,21.25
2022-09-11T02:18:39.238Z,20.98
2022-09-11T02:19:14.332Z,20.13
2022-09-11T02:19:49.866Z,21.35
2022-09-11T02:20:25.817Z,21.70
2022-09-11T02:20:59.520Z,19.92
2022-09-11T02:21:34.172Z,20.30
2022-09-11T02:22:09.535Z,20.60
2022-09-11T02:22:44.500Z,20.33
2022-09-11T02:23:18.539Z,21.58
2022-09-11T02:23:56.070Z,21.45
2022-09-11T02:24:29.978Z,20.52
2022-09-11T02:25:04.585Z,20.75
2022-09-11T02:25:40.432Z,21.65
2022-09-11T02:26:15.889Z,21.60
2022-09-11T02:26:52.917Z,20.60
2022-09-11T02:27:31.874Z,20.75
2022-09-11T02:28:44.587Z,19.67
2022-09-11T02:29:19.353Z,20.52
2022-09-11T02:29:54.578Z,20.65
2022-09-11T02:30:29.363Z,19.67
2022-09-11T02:31:04.149Z,19.63
2022-09-11T02:31:37.388Z,21.02
2022-09-11T02:32:12.686Z,20.98
2022-09-11T02:32:49.381Z,21.13
2022-09-11T02:33:29.159Z,20.20
2022-09-11T02:34:04.625Z,20.40
2022-09-11T02:34:39.636Z,20.98
2022-09-11T02:35:16.983Z,20.00
2022-09-11T02:35:55.380Z,20.27
2022-09-11T02:36:41.390Z,20.75
2022-09-11T02:37:23.741Z,20.08
2022-09-11T02:38:00.194Z,20.08
2022-09-11T02:38:38.313Z,19.10
2022-09-11T02:39:17.922Z,19.75
2022-09-11T02:40:04.145Z,19.25
2022-09-11T02:40:46.324Z,20.02
2022-09-11T02:41:24.919Z,19.17
2022-09-11T02:42:08.317Z,20.55
2022-09-11T02:42:48.541Z,20.27
2022-09-11T02:43:34.564Z,19.58
2022-09-11T02:44:13.227Z,18.52
2022-09-11T02:44:50.386Z,18.67
2022-09-11T02:45:36.403Z,19.10
2022-09-11T02:46:19.223Z,19.10
2022-09-11T02:47:06.857Z,18.67
2022-09-11T02:47:45.157Z,20.25
2022-09-11T02:48:26.875Z,19.30
2022-09-11T02:49:07.561Z,19.27
2022-09-11T02:49:48.226Z,19.55
2022-09-11T02:50:26.542Z,18.63
2022-09-11T02:51:03.465Z,20.08
2022-09-11T02:51:40.895Z,19.17
2022-09-11T02:52:21.914Z,18.83
2022-09-11T02:53:00.254Z,19.15
2022-09-11T02:53:38.934Z,18.95
2022-09-11T02:54:18.989Z,19.70
2022-09-11T02:54:57.510Z,18.80
2022-09-11T02:55:36.165Z,18.60
2022-09-11T02:56:13.915Z,18.30
2022-09-11T02:56:50.373Z,18.50
2022-09-11T02:57:27.876Z,18.52
2022-09-11T02:58:04.113Z,18.15
2022-09-11T02:58:40.672Z,18.17
2022-09-11T02:59:20.518Z,19.38
2022-09-11T02:59:56.382Z,18.63
2022-09-11T03:00:30.295Z,18.80
2022-09-11T03:01:06.845Z,18.42
2022-09-11T03:01:48.781Z,18.45
2022-09-11T03:02:24.894Z,18.15
2022-09-11T03:03:01.592Z,18.20
2022-09-11T03:03:39.378Z,18.50
2022-09-11T03:04:16.171Z,17.70
2022-09-11T03:04:51.437Z,18.98
2022-09-11T03:05:25.623Z,17.58
2022-09-11T03:06:00.226Z,17.38
2022-09-11T03:06:36.223Z,16.95
2022-09-11T03:07:09.881Z,17.40
2022-09-11T03:07:45.150Z,17.88
2022-09-11T03:08:21.073Z,18.25
2022-09-11T03:08:56.330Z,18.02
2022-09-11T03:09:30.583Z,18.77
2022-09-11T03:10:12.865Z,17.77
2022-09-11T03:10:47.486Z,17.80
2022-09-11T03:11:21.740Z,17.55
2022-09-11T03:11:56.663Z,19.02
2022-09-11T03:12:32.609Z,18.02
2022-09-11T03:13:06.443Z,18.10
2022-09-11T03:13:40.989Z,18.95
2022-09-11T03:14:18.141Z,17.90
2022-09-11T03:14:52.541Z,17.13
2022-09-11T03:15:28.615Z,17.48
2022-09-11T03:16:02.955Z,16.73
2022-09-11T03:16:37.691Z,17.52
2022-09-11T03:17:13.800Z,17.67
2022-09-11T03:17:47.931Z,18.33
2022-09-11T03:18:24.146Z,17.17
2022-09-11T03:18:58.982Z,17.40
2022-09-11T03:19:32.042Z,16.90
2022-09-11T03:20:05.676Z,17.42
2022-09-11T03:20:41.200Z,16.63
2022-09-11T03:21:17.599Z,16.70
2022-09-11T03:21:52.247Z,17.05
2022-09-11T03:22:30.021Z,17.27
2022-09-11T03:23:11.375Z,17.58
2022-09-11T03:23:44.911Z,17.13
2022-09-11T03:24:19.382Z,17.90
2022-09-11T03:24:53.119Z,17.35
2022-09-11T03:25:28.900Z,17.33
2022-09-11T03:26:06.328Z,16.88
2022-09-11T03:26:41.804Z,17.10
2022-09-11T03:27:17.523Z,16.98
2022-09-11T03:27:52.465Z,16.70
2022-09-11T03:28:26.514Z,16.35
2022-09-11T03:29:05.097Z,16.67
2022-09-11T03:29:42.332Z,16.75
2022-09-11T03:30:17.207Z,16.05
2022-09-11T03:30:56.449Z,16.83
2022-09-11T03:31:36.214Z,17.13
2022-09-11T03:32:13.477Z,16.52
2022-09-11T03:32:47.595Z,17.58
2022-09-11T03:33:23.091Z,17.30
2022-09-11T03:33:57.222Z,16.75
2022-09-11T03:34:32.399Z,16.95
2022-09-11T03:35:08.704Z,16.52
2022-09-11T03:35:45.336Z,16.83
2022-09-11T03:36:21.439Z,17.10
2022-09-11T03:36:54.491Z,16.77
2022-09-11T03:37:28.273Z,16.73
2022-09-11T03:38:05.815Z,16.42
2022-09-11T03:38:40.926Z,17.27
2022-09-11T03:39:14.993Z,16.42
2022-09-11T03:39:50.167Z,16.35
2022-09-11T03:40:23.967Z,16.52
2022-09-11T03:40:59.070Z,16.63
2022-09-11T03:41:34.295Z,16.73
2022-09-11T03:42:08.992Z,16.88
2022-09-11T03:42:43.697Z,16.27
2022-09-11T03:43:18.063Z,16.38
2022-09-11T03:43:52.659Z,15.75
2022-09-11T03:44:26.164Z,15.68
2022-09-11T03:45:02.314Z,15.60
2022-09-11T03:45:37.038Z,16.10
2022-09-11T03:46:11.663Z,15.15
2022-09-11T03:46:47.944Z,15.65
2022-09-11T03:47:22.911Z,15.25
2022-09-11T03:47:57.630Z,16.48
2022-09-11T03:48:32.451Z,16.98
2022-09-11T03:49:06.432Z,16.67
2022-09-11T03:49:40.014Z,16.38
2022-09-11T03:50:14.995Z,15.80
2022-09-11T03:50:49.149Z,16.13
2022-09-11T03:51:22.172Z,16.15
2022-09-11T03:51:57.427Z,15.85
2022-09-11T03:52:32.117Z,16.25
2022-09-11T03:53:06.160Z,16.65
2022-09-11T03:53:41.173Z,16.33
2022-09-11T03:54:16.803Z,15.27
2022-09-11T03:54:53.674Z,15.60
2022-09-11T03:55:27.983Z,16.35
2022-09-11T03:56:01.783Z,16.63
2022-09-11T03:56:39.613Z,16.27
2022-09-11T03:57:14.315Z,16.00
2022-09-11T03:57:48.219Z,15.90
2022-09-11T03:58:22.973Z,16.20
2022-09-11T03:58:57.916Z,14.93
2022-09-11T03:59:32.558Z,15.57
2022-09-11T04:00:11.199Z,16.15
2022-09-11T04:00:53.707Z,15.15
2022-09-11T04:01:27.993Z,15.88
2022-09-11T04:02:02.875Z,15.48
2022-09-11T04:02:37.319Z,15.45
2022-09-11T04:03:10.702Z,14.85
2022-09-11T04:03:50.251Z,13.63
2022-09-11T04:04:33.714Z,14.63
2022-09-11T04:05:09.143Z,15.57
2022-09-11T04:05:45.784Z,15.63
2022-09-11T04:06:20.620Z,21.25
2022-09-11T04:06:56.539Z,14.93
2022-09-11T04:07:32.213Z,14.48
2022-09-11T04:08:05.397Z,15.05
2022-09-11T04:08:41.882Z,15.20
2022-09-11T04:09:18.451Z,16.23
2022-09-11T04:09:55.695Z,15.55
2022-09-11T04:10:30.355Z,14.55
2022-09-11T04:11:05.820Z,15.07
2022-09-11T04:11:42.362Z,14.27
2022-09-11T04:12:27.471Z,13.63
2022-09-11T04:13:02.659Z,14.88
2022-09-11T04:13:37.507Z,14.57
2022-09-11T04:14:15.159Z,14.15
2022-09-11T04:14:51.020Z,14.75
2022-09-11T04:15:26.331Z,14.60
2022-09-11T04:16:01.473Z,14.48
2022-09-11T04:16:37.243Z,14.77
2022-09-11T04:17:12.169Z,14.18
2022-09-11T04:17:46.905Z,14.13
2022-09-11T04:18:21.876Z,13.73
2022-09-11T04:18:56.786Z,14.55
2022-09-11T04:19:31.584Z,14.82
2022-09-11T04:20:05.390Z,13.48
2022-09-11T04:20:41.632Z,14.07
2022-09-11T04:21:17.361Z,14.50
2022-09-11T04:21:57.260Z,14.40
2022-09-11T04:22:31.179Z,14.93
2022-09-11T04:23:05.895Z,14.13
2022-09-11T04:23:42.393Z,14.63
2022-09-11T04:24:17.402Z,13.98
2022-09-11T04:24:52.292Z,13.85
2022-09-11T04:25:27.403Z,14.38
2022-09-11T04:26:02.205Z,13.25
2022-09-11T04:26:36.467Z,14.13
2022-09-11T04:27:24.087Z,13.65
2022-09-11T04:27:58.157Z,13.73
2022-09-11T04:28:33.228Z,14.73
2022-09-11T04:29:07.825Z,14.18
2022-09-11T04:29:43.799Z,14.43
2022-09-11T04:30:17.902Z,14.00
2022-09-11T04:30:54.011Z,15.07
2022-09-11T04:31:28.994Z,14.70
2022-09-11T04:32:03.273Z,13.93
2022-09-11T04:32:40.950Z,14.20
2022-09-11T04:33:15.865Z,13.73
2022-09-11T04:33:53.026Z,14.38
2022-09-11T04:34:31.142Z,14.00
2022-09-11T04:35:05.230Z,14.10
2022-09-11T04:35:44.743Z,13.45
2022-09-11T04:36:21.983Z,13.65
2022-09-11T04:36:56.920Z,13.05
2022-09-11T04:37:31.020Z,14.38
2022-09-11T04:38:05.266Z,14.00
2022-09-11T04:38:42.578Z,13.70
2022-09-11T04:39:19.141Z,14.15
2022-09-11T04:39:56.277Z,13.77
2022-09-11T04:40:30.595Z,13.80
2022-09-11T04:41:04.476Z,13.65
2022-09-11T04:41:39.387Z,14.00
2022-09-11T04:42:14.066Z,14.38
2022-09-11T04:42:49.736Z,13.35
2022-09-11T04:43:25.489Z,14.27
2022-09-11T04:44:05.207Z,14.13
2022-09-11T04:44:47.065Z,14.02
2022-09-11T04:45:21.619Z,14.27
2022-09-11T04:46:03.215Z,13.55
2022-09-11T04:46:39.844Z,14.13
2022-09-11T04:47:14.759Z,13.50
2022-09-11T04:47:49.868Z,13.55
2022-09-11T04:48:24.574Z,12.93
2022-09-11T04:48:59.485Z,14.18
2022-09-11T04:49:33.774Z,13.80
2022-09-11T04:50:08.780Z,13.63
2022-09-11T04:50:44.998Z,14.30
2022-09-11T04:51:31.103Z,13.77
2022-09-11T04:52:07.360Z,13.52
2022-09-11T04:52:41.279Z,13.70
2022-09-11T04:53:18.021Z,13.45
2022-09-11T04:53:52.122Z,13.93
2022-09-11T04:54:26.683Z,14.43
2022-09-11T04:55:03.229Z,12.88
2022-09-11T04:55:38.750Z,13.32
2022-09-11T04:56:14.252Z,14.05
2022-09-11T04:56:55.471Z,13.53
2022-09-11T04:57:31.026Z,13.57
2022-09-11T04:58:04.717Z,13.70
2022-09-11T04:58:39.770Z,13.57
2022-09-11T04:59:16.126Z,13.55
2022-09-11T04:59:56.327Z,13.88
2022-09-11T05:00:30.430Z,14.13
2022-09-11T05:01:08.765Z,13.57
2022-09-11T05:01:47.108Z,13.73
2022-09-11T05:02:22.640Z,13.93
2022-09-11T05:02:59.834Z,14.38
2022-09-11T05:03:35.414Z,15.10
2022-09-11T05:04:09.328Z,14.02
2022-09-11T05:04:45.253Z,13.77
2022-09-11T05:05:19.884Z,13.93
2022-09-11T05:05:53.780Z,13.95
2022-09-11T05:06:29.029Z,14.00
2022-09-11T05:07:05.923Z,13.43
2022-09-11T05:07:39.471Z,14.00
2022-09-11T05:08:14.887Z,13.30
2022-09-11T05:08:49.099Z,13.45
2022-09-11T05:09:23.826Z,14.23
2022-09-11T05:09:59.136Z,13.48
2022-09-11T05:10:33.193Z,14.32
2022-09-11T05:11:09.181Z,14.50
2022-09-11T05:11:43.079Z,14.10
2022-09-11T05:12:17.808Z,14.63
2022-09-11T05:12:52.579Z,14.48
2022-09-11T05:13:27.245Z,14.48
2022-09-11T05:14:01.888Z,14.63
2022-09-11T05:14:39.730Z,13.70
2022-09-11T05:15:14.086Z,14.18
2022-09-11T05:15:50.740Z,14.25
2022-09-11T05:16:28.075Z,14.73
2022-09-11T05:17:02.281Z,15.20
2022-09-11T05:17:38.847Z,15.25
2022-09-11T05:18:16.698Z,15.10
2022-09-11T05:18:52.721Z,15.57
2022-09-11T05:19:30.522Z,14.73
2022-09-11T05:20:08.635Z,13.20
2022-09-11T05:20:45.485Z,15.10
2022-09-11T05:21:21.752Z,15.10
2022-09-11T05:21:56.422Z,15.35
2022-09-11T05:22:33.849Z,14.90
2022-09-11T05:23:09.058Z,15.40
2022-09-11T05:23:43.640Z,13.45
2022-09-11T05:24:19.229Z,14.90
2022-09-11T05:24:53.164Z,14.95
2022-09-11T05:25:28.381Z,14.13
2022-09-11T05:26:02.473Z,13.82
2022-09-11T05:26:39.412Z,14.00
2022-09-11T05:27:14.885Z,14.02
2022-09-11T05:27:49.914Z,14.48
2022-09-11T05:28:26.729Z,14.18
2022-09-11T05:29:01.487Z,13.88
2022-09-11T05:29:39.431Z,14.35
2022-09-11T05:30:19.253Z,13.43
2022-09-11T05:30:54.257Z,13.80
2022-09-11T05:31:32.767Z,13.50
2022-09-11T05:32:07.533Z,13.65
2022-09-11T05:32:41.130Z,13.60
2022-09-11T05:33:15.448Z,15.15
2022-09-11T05:33:48.815Z,15.00
2022-09-11T05:34:23.019Z,13.23
2022-09-11T05:35:00.274Z,14.77
2022-09-11T05:35:34.587Z,13.27
2022-09-11T05:36:09.515Z,14.23
2022-09-11T05:36:43.826Z,13.60
2022-09-11T05:37:18.519Z,14.23
2022-09-11T05:37:55.212Z,14.30
2022-09-11T05:38:30.218Z,13.57
2022-09-11T05:39:04.984Z,13.82
2022-09-11T05:39:41.556Z,13.70
2022-09-11T05:40:18.400Z,13.77
2022-09-11T05:40:53.759Z,13.55
2022-09-11T05:41:29.612Z,15.18
2022-09-11T05:42:22.767Z,13.85
2022-09-11T05:43:01.585Z,14.43
2022-09-11T05:43:36.673Z,13.75
2022-09-11T05:44:11.912Z,13.52
2022-09-11T05:44:47.851Z,14.18
2022-09-11T05:45:23.811Z,14.07
2022-09-11T05:45:59.984Z,13.73
2022-09-11T05:46:38.043Z,16.00
2022-09-11T05:47:13.068Z,13.57
2022-09-11T05:47:53.157Z,13.23
2022-09-11T05:48:29.837Z,13.27
2022-09-11T05:49:05.192Z,13.75
2022-09-11T05:49:39.736Z,17.73
2022-09-11T05:50:15.464Z,14.02
2022-09-11T05:50:53.320Z,13.38
2022-09-11T05:51:29.813Z,13.88
2022-09-11T05:52:06.005Z,12.85
2022-09-11T05:52:41.536Z,13.27
2022-09-11T05:53:18.109Z,12.70
2022-09-11T05:53:54.248Z,13.32
2022-09-11T05:54:29.858Z,13.85
2022-09-11T05:55:05.429Z,12.98
2022-09-11T05:55:39.976Z,13.48
2022-09-11T05:56:16.200Z,13.27
2022-09-11T05:56:50.498Z,12.55
2022-09-11T05:57:31.095Z,12.43
2022-09-11T05:58:04.739Z,12.80
2022-09-11T05:58:38.752Z,13.32
2022-09-11T05:59:18.151Z,12.55
2022-09-11T05:59:55.485Z,12.50
2022-09-11T06:00:28.685Z,12.88
2022-09-11T06:01:07.868Z,12.80
2022-09-11T06:01:45.336Z,12.93
2022-09-11T06:02:27.979Z,12.25
2022-09-11T06:03:03.112Z,12.38
2022-09-11T06:03:37.292Z,12.73
2022-09-11T06:04:14.389Z,13.40
2022-09-11T06:04:52.168Z,12.68
2022-09-11T06:05:29.579Z,11.98
2022-09-11T06:06:07.805Z,12.27
2022-09-11T06:06:44.317Z,11.57
2022-09-11T06:07:18.552Z,11.93
2022-09-11T06:07:54.779Z,12.00
2022-09-11T06:08:29.721Z,10.90
2022-09-11T06:09:05.164Z,11.27
2022-09-11T06:09:39.094Z,12.45
2022-09-11T06:10:14.093Z,11.90
2022-09-11T06:10:50.923Z,12.05
2022-09-11T06:11:25.220Z,12.00
2022-09-11T06:11:59.620Z,11.38
2022-09-11T06:12:37.083Z,11.63
2022-09-11T06:13:12.643Z,11.23
2022-09-11T06:13:47.687Z,11.38
2022-09-11T06:14:22.759Z,11.02
2022-09-11T06:14:58.076Z,10.57
2022-09-11T06:15:46.158Z,10.02
2022-09-11T06:16:25.320Z,11.35
2022-09-11T06:17:07.105Z,10.35
2022-09-11T06:17:41.888Z,9.13
2022-09-11T06:18:16.858Z,9.07
2022-09-11T06:18:53.611Z,9.18
2022-09-11T06:19:30.022Z,10.05
2022-09-11T06:20:04.701Z,9.10
2022-09-11T06:20:38.298Z,8.95
2022-09-11T06:21:20.877Z,9.25
2022-09-11T06:22:01.252Z,8.65
2022-09-11T06:22:46.878Z,8.18
2022-09-11T06:23:21.870Z,7.93
2022-09-11T06:23:56.695Z,8.38
2022-09-11T06:24:31.949Z,8.77
2022-09-11T06:25:06.465Z,8.80
2022-09-11T06:25:40.964Z,8.73
2022-09-11T06:26:19.102Z,8.65
2022-09-11T06:26:54.364Z,7.30
2022-09-11T06:27:29.179Z,8.13
2022-09-11T06:28:03.954Z,8.18
2022-09-11T06:28:39.796Z,8.38
2022-09-11T06:29:15.694Z,7.78
2022-09-11T06:29:56.106Z,7.95
2022-09-11T06:30:30.117Z,7.72
2022-09-11T06:31:05.601Z,8.43
2022-09-11T06:31:41.850Z,8.48
2022-09-11T06:32:18.817Z,7.82
2022-09-11T06:32:57.014Z,7.30
2022-09-11T06:33:35.296Z,7.57
2022-09-11T06:34:14.096Z,7.70
2022-09-11T06:34:49.885Z,7.18
2022-09-11T06:35:24.078Z,7.35
2022-09-11T06:36:00.549Z,7.82
2022-09-11T06:36:35.012Z,7.63
2022-09-11T06:37:14.933Z,7.03
2022-09-11T06:37:49.352Z,7.40
2022-09-11T06:38:23.764Z,6.95
2022-09-11T06:39:00.443Z,7.50
2022-09-11T06:39:35.505Z,7.22
2022-09-11T06:40:14.007Z,7.50
2022-09-11T06:40:50.007Z,6.80
2022-09-11T06:41:25.345Z,6.72
2022-09-11T06:42:04.478Z,7.20
2022-09-11T06:42:42.966Z,6.68
2022-09-11T06:43:17.776Z,6.95
2022-09-11T06:43:53.467Z,6.65
2022-09-11T06:44:28.232Z,5.90
2022-09-11T06:45:09.098Z,7.38
2022-09-11T06:45:44.119Z,5.63
2022-09-11T06:46:21.311Z,5.57
2022-09-11T06:46:54.736Z,6.13
2022-09-11T06:47:32.610Z,5.50
2022-09-11T06:48:07.178Z,11.20
2022-09-11T06:48:43.388Z,5.30
2022-09-11T06:49:20.283Z,5.95
2022-09-11T06:50:14.871Z,5.00
2022-09-11T06:51:12.063Z,5.60
2022-09-11T06:51:47.616Z,5.25
2022-09-11T06:52:22.117Z,5.38
2022-09-11T06:53:09.686Z,4.90
2022-09-11T06:53:48.143Z,5.38
2022-09-11T06:54:22.371Z,4.78
2022-09-11T06:54:58.020Z,5.22
2022-09-11T06:55:31.938Z,4.28
2022-09-11T06:56:13.818Z,4.95
2022-09-11T06:56:51.101Z,5.00
2022-09-11T06:57:25.354Z,4.60
2022-09-11T06:57:59.305Z,5.15
2022-09-11T06:58:37.193Z,5.68
2022-09-11T06:59:11.573Z,5.22
2022-09-11T06:59:45.090Z,4.60
2022-09-11T07:00:22.449Z,4.57
2022-09-11T07:00:56.713Z,4.88
2022-09-11T07:01:32.079Z,4.97
2022-09-11T07:02:10.326Z,4.43
2022-09-11T07:02:46.852Z,4.28
2022-09-11T07:03:21.154Z,4.90
2022-09-11T07:03:58.621Z,4.57
2022-09-11T07:04:32.768Z,4.72
2022-09-11T07:05:07.564Z,5.38
2022-09-11T07:05:48.671Z,4.68
2022-09-11T07:06:23.789Z,4.70
2022-09-11T07:07:00.591Z,4.47
2022-09-11T07:07:36.307Z,4.75
2022-09-11T07:08:13.139Z,4.72
2022-09-11T07:08:52.771Z,4.72
2022-09-11T07:09:29.508Z,4.55
2022-09-11T07:10:05.817Z,4.40
2022-09-11T07:10:39.933Z,4.60
2022-09-11T07:11:15.455Z,5.70
2022-09-11T07:11:49.817Z,5.82
2022-09-11T07:12:25.669Z,6.63
2022-09-11T07:13:02.229Z,5.85
2022-09-11T07:13:39.383Z,6.13
2022-09-11T07:14:12.829Z,6.43
2022-09-11T07:14:50.544Z,6.47
2022-09-11T07:15:25.450Z,7.55
2022-09-11T07:16:01.925Z,7.55
2022-09-11T07:16:39.621Z,6.75
2022-09-11T07:17:17.002Z,7.60
2022-09-11T07:17:57.667Z,7.15
2022-09-11T07:18:36.133Z,7.32
2022-09-11T07:19:14.189Z,7.97
2022-09-11T07:19:49.190Z,7.50
2022-09-11T07:20:23.971Z,7.25
2022-09-11T07:20:58.947Z,7.90
2022-09-11T07:21:37.868Z,6.95
2022-09-11T07:22:15.264Z,7.53
2022-09-11T07:22:49.556Z,7.43
2022-09-11T07:23:26.857Z,6.93
2022-09-11T07:24:01.919Z,7.63
2022-09-11T07:24:41.351Z,6.82
2022-09-11T07:25:15.024Z,7.07
2022-09-11T07:25:50.612Z,7.45
2022-09-11T07:26:26.858Z,6.82
2022-09-11T07:27:05.348Z,6.55
2022-09-11T07:27:43.045Z,4.75
2022-09-11T07:28:18.353Z,5.35
2022-09-11T07:28:52.901Z,4.63
2022-09-11T07:29:27.762Z,5.45
2022-09-11T07:30:05.045Z,5.20
2022-09-11T07:30:46.705Z,4.80
2022-09-11T07:31:23.305Z,4.43
2022-09-11T07:31:59.319Z,4.15
2022-09-11T07:32:34.258Z,4.25
2022-09-11T07:33:10.586Z,4.03
2022-09-11T07:33:46.709Z,4.35
2022-09-11T07:34:22.666Z,3.92
2022-09-11T07:34:58.260Z,4.13
2022-09-11T07:35:33.087Z,3.65
2022-09-11T07:36:12.567Z,3.58
2022-09-11T07:36:52.594Z,3.78
2022-09-11T07:37:30.208Z,3.50
2022-09-11T07:38:04.566Z,3.67
2022-09-11T07:38:42.531Z,3.60
2022-09-11T07:39:18.201Z,3.65
2022-09-11T07:39:59.690Z,3.50
2022-09-11T07:40:37.060Z,3.70
2022-09-11T07:41:14.086Z,3.88
2022-09-11T07:41:50.396Z,5.45
2022-09-11T07:42:30.371Z,4.10
2022-09-11T07:43:05.440Z,3.63
2022-09-11T07:43:41.424Z,3.63
2022-09-11T07:44:16.966Z,3.35
2022-09-11T07:44:52.308Z,3.70
2022-09-11T07:45:29.122Z,3.85
2022-09-11T07:46:04.570Z,3.60
2022-09-11T07:46:42.122Z,4.10
2022-09-11T07:47:19.318Z,3.60
2022-09-11T07:47:56.393Z,3.40
2022-09-11T07:48:31.370Z,3.83
2022-09-11T07:49:08.534Z,3.85
2022-09-11T07:49:43.573Z,4.00
2022-09-11T07:50:18.675Z,4.00
2022-09-11T07:51:00.048Z,3.80
2022-09-11T07:51:35.351Z,3.40
2022-09-11T07:52:16.736Z,3.72
2022-09-11T07:52:58.063Z,4.00
2022-09-11T07:53:35.102Z,4.43
2022-09-11T07:54:10.307Z,3.33
2022-09-11T07:54:45.315Z,3.85
2022-09-11T07:55:22.430Z,4.20
2022-09-11T07:55:58.864Z,7.35
2022-09-11T07:56:32.724Z,4.15
2022-09-11T07:57:09.407Z,4.57